Time;durP1;ratioP1;P1;durP2;ratioP2;P2;SDS_P1;SDS_P2;PMS_P1;PMS_P2;Temp;Humidity;BMP_temperature;BMP_pressure;BME280_temperature;BME280_humidity;BME280_pressure;Samples;Min_cycle;Max_cycle;Signal;HPM_P1;HPM_P2
2023/02/17 00:01:53;;;;;;;25.98;21.15;;;10.90;99.90;;;;;;5042963;28;20220;-80
2023/02/17 00:04:21;;;;;;;29.10;21.92;;;10.90;99.90;;;;;;5054578;28;20278;-77
2023/02/17 00:06:50;;;;;;;25.45;22.30;;;10.90;99.90;;;;;;5055959;28;20224;-77
2023/02/17 00:09:18;;;;;;;26.70;22.67;;;10.90;99.90;;;;;;5053897;28;20640;-80
2023/02/17 00:11:45;;;;;;;24.58;21.30;;;10.90;99.90;;;;;;5043871;28;20320;-81
2023/02/17 00:14:14;;;;;;;27.90;24.08;;;10.80;99.90;;;;;;5053621;28;20225;-77
2023/02/17 00:16:42;;;;;;;26.40;23.10;;;10.80;99.90;;;;;;5043079;28;20237;-77
2023/02/17 00:21:59;;;;;;;24.95;22.23;;;10.70;99.90;;;;;;5053055;28;20231;-81
2023/02/17 00:24:28;;;;;;;29.50;24.38;;;10.70;99.90;;;;;;5054050;28;20316;-77
2023/02/17 00:26:59;;;;;;;24.25;20.67;;;10.70;99.90;;;;;;5040884;28;20231;-77
2023/02/17 00:29:26;;;;;;;23.40;20.73;;;10.70;99.90;;;;;;5054221;28;20235;-77
2023/02/17 00:31:54;;;;;;;27.70;22.30;;;10.70;99.90;;;;;;5052856;28;20230;-81
2023/02/17 00:34:26;;;;;;;24.33;20.98;;;10.60;99.90;;;;;;5053053;28;20225;-77
2023/02/17 00:36:53;;;;;;;29.75;23.13;;;10.60;99.90;;;;;;5052039;28;20232;-80
2023/02/17 00:39:23;;;;;;;28.42;22.85;;;10.60;99.90;;;;;;5054514;28;20229;-77
2023/02/17 00:41:51;;;;;;;26.52;22.35;;;10.60;99.90;;;;;;5043014;28;20232;-77
2023/02/17 00:44:22;;;;;;;29.15;23.40;;;10.50;99.90;;;;;;5053014;28;20232;-77
2023/02/17 00:46:51;;;;;;;26.45;21.83;;;10.50;99.90;;;;;;5050693;28;20233;-80
2023/02/17 00:49:21;;;;;;;27.20;24.25;;;10.50;99.90;;;;;;5052255;28;20314;-77
2023/02/17 00:51:54;;;;;;;28.00;21.85;;;10.50;99.90;;;;;;5054028;28;20236;-80
2023/02/17 00:54:23;;;;;;;28.05;23.40;;;10.50;99.90;;;;;;5054183;28;20240;-76
2023/02/17 00:56:50;;;;;;;27.67;23.67;;;10.50;99.90;;;;;;5053956;28;20282;-77
2023/02/17 00:59:22;;;;;;;26.60;23.42;;;10.50;99.90;;;;;;5054265;28;20271;-81
2023/02/17 01:01:50;;;;;;;24.98;20.85;;;10.50;99.90;;;;;;5053464;28;20228;-77
2023/02/17 01:07:42;;;;;;;28.38;22.02;;;10.40;99.90;;;;;;4947171;28;20225;-77
2023/02/17 01:10:11;;;;;;;31.88;24.92;;;10.40;99.90;;;;;;5041128;28;20576;-77
2023/02/17 01:12:39;;;;;;;28.83;22.42;;;10.40;99.90;;;;;;5054587;28;20300;-77
2023/02/17 01:15:07;;;;;;;27.40;22.52;;;10.40;99.90;;;;;;5052089;28;20302;-78
2023/02/17 01:17:36;;;;;;;29.77;23.65;;;10.40;99.90;;;;;;5054183;28;20278;-77
2023/02/17 01:20:03;;;;;;;30.38;26.15;;;10.40;99.90;;;;;;5053134;28;20221;-81
2023/02/17 01:22:30;;;;;;;27.55;23.55;;;10.40;99.90;;;;;;5053035;28;20239;-77
2023/02/17 01:24:58;;;;;;;30.33;22.15;;;10.40;99.90;;;;;;5052051;28;20228;-76
2023/02/17 01:27:26;;;;;;;27.92;23.77;;;10.40;99.90;;;;;;5050490;28;20228;-76
2023/02/17 01:29:53;;;;;;;25.63;21.95;;;10.40;99.90;;;;;;5052533;28;20243;-80
2023/02/17 01:32:21;;;;;;;26.10;23.05;;;10.40;99.90;;;;;;5048964;28;20224;-80
2023/02/17 01:34:49;;;;;;;31.05;23.85;;;10.40;99.90;;;;;;5053867;28;20734;-80
2023/02/17 01:37:16;;;;;;;28.02;22.02;;;10.40;99.90;;;;;;5053320;28;20251;-80
2023/02/17 01:39:43;;;;;;;30.42;23.75;;;10.30;99.90;;;;;;5056926;28;20225;-77
2023/02/17 01:42:15;;;;;;;28.77;23.92;;;10.30;99.90;;;;;;5058144;28;20587;-75
2023/02/17 01:45:11;;;;;;;28.00;22.38;;;10.30;99.90;;;;;;5063763;28;20225;-78
2023/02/17 01:47:46;;;;;;;31.25;23.55;;;10.30;99.90;;;;;;5039302;28;20395;-78
2023/02/17 01:50:13;;;;;;;28.13;23.35;;;10.20;99.90;;;;;;5060602;28;20260;-76
2023/02/17 01:52:42;;;;;;;30.05;23.73;;;10.20;99.90;;;;;;5057493;28;20228;-80
2023/02/17 01:55:15;;;;;;;26.33;23.13;;;10.30;99.90;;;;;;5062900;28;20248;-81
2023/02/17 01:57:46;;;;;;;28.92;23.42;;;10.30;99.90;;;;;;5056100;28;20751;-80
2023/02/17 02:00:16;;;;;;;29.77;22.40;;;10.30;99.90;;;;;;5060321;28;20248;-76
2023/02/17 02:02:47;;;;;;;28.42;23.60;;;10.30;99.90;;;;;;5054631;28;20658;-80
2023/02/17 02:05:16;;;;;;;26.58;22.52;;;10.30;99.90;;;;;;5067192;28;20248;-77
2023/02/17 02:07:46;;;;;;;30.05;23.67;;;10.30;99.90;;;;;;5057298;28;20255;-77
2023/02/17 02:10:15;;;;;;;31.35;24.58;;;10.20;99.90;;;;;;5053998;28;20225;-80
2023/02/17 02:12:43;;;;;;;29.98;24.23;;;10.20;99.90;;;;;;5053154;28;20217;-80
2023/02/17 02:15:15;;;;;;;24.67;20.50;;;10.20;99.90;;;;;;5054384;28;20229;-80
2023/02/17 02:17:54;;;;;;;24.88;21.38;;;10.20;99.90;;;;;;5054038;28;20221;-80
2023/02/17 02:20:51;;;;;;;29.10;23.60;;;10.30;99.90;;;;;;5052240;28;20228;-81
2023/02/17 02:23:54;;;;;;;27.55;21.52;;;10.30;99.90;;;;;;5052969;28;20295;-77
2023/02/17 02:26:55;;;;;;;33.33;24.10;;;10.20;99.90;;;;;;5051803;28;20290;-77
2023/02/17 02:29:57;;;;;;;30.95;24.42;;;10.20;99.90;;;;;;5008595;28;20243;-79
2023/02/17 02:32:47;;;;;;;30.55;24.48;;;10.20;99.90;;;;;;5050074;28;20243;-80
2023/02/17 02:35:19;;;;;;;30.00;23.33;;;10.10;99.90;;;;;;5050889;28;20224;-77
2023/02/17 02:37:57;;;;;;;33.35;24.83;;;10.10;99.90;;;;;;5050593;28;20228;-77
2023/02/17 02:40:31;;;;;;;31.65;24.67;;;10.10;99.90;;;;;;5049533;28;20228;-77
2023/02/17 02:43:04;;;;;;;32.35;26.33;;;10.10;99.90;;;;;;5038391;28;20373;-77
2023/02/17 02:45:41;;;;;;;29.67;25.42;;;10.10;99.90;;;;;;5048757;28;20227;-81
2023/02/17 02:48:09;;;;;;;31.88;24.50;;;10.10;99.90;;;;;;5047780;28;20247;-77
2023/02/17 02:51:02;;;;;;;36.90;28.42;;;10.10;99.90;;;;;;5050919;28;20281;-80
2023/02/17 02:53:56;;;;;;;30.85;26.20;;;10.10;99.90;;;;;;5018903;28;20229;-76
2023/02/17 02:56:41;;;;;;;37.15;27.98;;;10.00;99.90;;;;;;5029870;28;20707;-80
2023/02/17 02:59:19;;;;;;;32.83;27.23;;;10.00;99.90;;;;;;5052439;28;20236;-76
2023/02/17 03:01:54;;;;;;;32.65;25.58;;;10.00;99.90;;;;;;5052737;28;20267;-77
2023/02/17 03:04:30;;;;;;;37.80;27.08;;;10.00;99.90;;;;;;5051918;28;20315;-76
2023/02/17 03:07:01;;;;;;;33.65;26.50;;;10.00;99.90;;;;;;5052149;28;20220;-76
2023/02/17 03:09:29;;;;;;;36.13;26.92;;;10.00;99.90;;;;;;5051987;28;20221;-78
2023/02/17 03:11:58;;;;;;;30.80;26.08;;;9.90;99.90;;;;;;5052796;28;20221;-76
2023/02/17 03:14:26;;;;;;;32.20;25.95;;;9.90;99.90;;;;;;5029772;28;20646;-79
2023/02/17 03:16:54;;;;;;;34.38;27.30;;;9.90;99.90;;;;;;5047979;28;20750;-80
2023/02/17 03:19:26;;;;;;;31.65;26.63;;;9.90;99.90;;;;;;5041430;28;20242;-79
2023/02/17 03:21:59;;;;;;;31.00;24.15;;;9.90;99.90;;;;;;5046985;28;20220;-80
2023/02/17 03:24:26;;;;;;;33.10;25.85;;;9.90;99.90;;;;;;5052129;28;20228;-80
2023/02/17 03:26:53;;;;;;;36.97;27.20;;;9.90;99.90;;;;;;5051315;28;20225;-80
2023/02/17 03:29:20;;;;;;;31.85;24.58;;;9.90;99.90;;;;;;5052548;28;20345;-80
2023/02/17 03:31:47;;;;;;;34.75;28.40;;;9.90;99.90;;;;;;5047394;28;20316;-76
2023/02/17 03:34:14;;;;;;;36.17;27.05;;;9.90;99.90;;;;;;5055800;28;20221;-76
2023/02/17 03:36:42;;;;;;;29.20;25.40;;;9.90;99.90;;;;;;5056026;28;20228;-76
2023/02/17 03:39:09;;;;;;;38.53;28.23;;;9.90;99.90;;;;;;5056208;28;20229;-76
2023/02/17 03:41:39;;;;;;;31.67;25.95;;;9.90;99.90;;;;;;5046137;28;20221;-76
2023/02/17 03:44:09;;;;;;;39.53;27.52;;;9.90;99.90;;;;;;5056180;28;20304;-76
2023/02/17 03:46:38;;;;;;;36.15;28.40;;;9.90;99.90;;;;;;5055564;28;20232;-76
2023/02/17 03:49:05;;;;;;;33.30;26.92;;;9.90;99.90;;;;;;5055947;28;20236;-80
2023/02/17 03:51:32;;;;;;;35.50;29.80;;;9.90;99.90;;;;;;5055300;28;20343;-76
2023/02/17 03:54:01;;;;;;;33.63;26.23;;;9.90;99.90;;;;;;5056170;28;20231;-75
2023/02/17 03:56:28;;;;;;;36.92;28.48;;;9.90;99.90;;;;;;5055501;28;20560;-79
2023/02/17 03:58:55;;;;;;;38.33;29.85;;;9.90;99.90;;;;;;5056458;28;20221;-80
2023/02/17 04:01:23;;;;;;;35.47;27.52;;;9.90;99.90;;;;;;5055405;28;20447;-79
2023/02/17 04:03:52;;;;;;;37.60;29.45;;;9.90;99.90;;;;;;5055747;28;20224;-76
2023/02/17 04:06:26;;;;;;;35.42;26.20;;;9.90;99.90;;;;;;5044565;28;20591;-79
2023/02/17 04:08:53;;;;;;;31.88;26.33;;;9.80;99.90;;;;;;5039803;28;20326;-81
2023/02/17 04:11:21;;;;;;;29.80;25.33;;;9.80;99.90;;;;;;5054687;28;20236;-80
2023/02/17 04:13:49;;;;;;;41.47;28.20;;;9.90;99.90;;;;;;5053965;28;20251;-76
2023/02/17 04:16:16;;;;;;;32.40;26.23;;;9.90;99.90;;;;;;5029033;28;20228;-77
2023/02/17 04:18:43;;;;;;;31.70;25.80;;;9.90;99.90;;;;;;5054077;28;20514;-77
2023/02/17 04:21:10;;;;;;;37.63;28.00;;;9.90;99.90;;;;;;5054789;28;20567;-77
2023/02/17 04:23:38;;;;;;;31.83;25.73;;;9.90;99.90;;;;;;5054675;28;20308;-81
2023/02/17 04:26:07;;;;;;;31.30;26.73;;;9.90;99.90;;;;;;5055651;28;20224;-76
2023/02/17 04:28:38;;;;;;;28.58;23.30;;;10.00;99.90;;;;;;5054358;28;20231;-81
2023/02/17 04:31:05;;;;;;;32.50;26.98;;;10.00;99.90;;;;;;5055486;28;20260;-81
2023/02/17 04:33:32;;;;;;;30.33;23.40;;;10.00;99.90;;;;;;5055109;28;20251;-77
2023/02/17 04:36:00;;;;;;;34.05;26.77;;;10.00;99.90;;;;;;5055190;28;20225;-77
2023/02/17 04:38:28;;;;;;;27.77;24.52;;;10.00;99.90;;;;;;5054603;28;20279;-77
2023/02/17 04:40:55;;;;;;;32.70;25.73;;;10.10;99.90;;;;;;5054440;28;20513;-81
2023/02/17 04:43:23;;;;;;;28.17;22.65;;;10.10;99.90;;;;;;5055011;28;20255;-77
2023/02/17 04:45:52;;;;;;;27.70;23.38;;;10.10;99.90;;;;;;5053869;28;20221;-81
2023/02/17 04:48:19;;;;;;;26.30;23.42;;;10.00;99.90;;;;;;5054652;28;20224;-80
2023/02/17 04:50:46;;;;;;;33.58;24.75;;;10.00;99.90;;;;;;5052650;28;20225;-81
2023/02/17 04:53:14;;;;;;;27.75;22.65;;;10.00;99.90;;;;;;5054886;28;20232;-77
2023/02/17 04:55:41;;;;;;;24.05;20.73;;;10.10;99.90;;;;;;5054404;28;20239;-77
2023/02/17 04:58:09;;;;;;;25.42;20.90;;;10.10;99.90;;;;;;5054749;28;20228;-81
2023/02/17 05:00:37;;;;;;;27.33;22.20;;;10.10;99.90;;;;;;5053911;28;20232;-80
2023/02/17 05:03:05;;;;;;;26.17;21.70;;;10.20;99.90;;;;;;5054674;28;20565;-77
2023/02/17 05:05:33;;;;;;;25.38;22.67;;;10.20;99.90;;;;;;5054221;28;20311;-81
2023/02/17 05:08:00;;;;;;;27.02;22.60;;;10.10;99.90;;;;;;5054534;28;20646;-81
2023/02/17 05:10:32;;;;;;;27.25;24.35;;;10.10;99.90;;;;;;5054521;28;20619;-77
2023/02/17 05:13:00;;;;;;;25.70;22.95;;;10.10;99.90;;;;;;5053893;28;20221;-77
2023/02/17 05:15:27;;;;;;;25.48;21.65;;;10.10;99.90;;;;;;5055569;28;20668;-81
2023/02/17 05:17:54;;;;;;;27.17;22.83;;;10.10;99.90;;;;;;5054818;28;20237;-76
2023/02/17 05:20:22;;;;;;;24.70;22.10;;;10.10;99.90;;;;;;5054643;28;20236;-76
2023/02/17 05:22:49;;;;;;;25.58;21.80;;;10.10;99.90;;;;;;5054510;28;20290;-81
2023/02/17 05:25:17;;;;;;;27.65;23.60;;;10.10;99.90;;;;;;5054707;28;20225;-81
2023/02/17 05:27:44;;;;;;;28.52;23.27;;;10.10;99.90;;;;;;5053410;28;20557;-77
2023/02/17 05:30:12;;;;;;;29.80;23.45;;;10.10;99.90;;;;;;5054633;28;20689;-81
2023/02/17 05:32:39;;;;;;;27.60;21.83;;;10.10;99.90;;;;;;5053703;28;20235;-80
2023/02/17 05:35:07;;;;;;;28.83;23.90;;;10.20;99.90;;;;;;5054790;28;20224;-77
2023/02/17 05:37:38;;;;;;;28.65;23.05;;;10.20;99.90;;;;;;5053530;28;20224;-76
2023/02/17 05:40:06;;;;;;;28.42;24.95;;;10.20;99.90;;;;;;5053137;28;20232;-76
2023/02/17 05:42:35;;;;;;;32.72;24.10;;;10.20;99.90;;;;;;5053491;28;20253;-76
2023/02/17 05:45:03;;;;;;;28.75;23.77;;;10.20;99.90;;;;;;5053364;28;20368;-76
2023/02/17 05:47:30;;;;;;;27.13;21.90;;;10.20;99.90;;;;;;5053411;28;20286;-76
2023/02/17 05:49:57;;;;;;;30.40;22.65;;;10.30;99.90;;;;;;5052890;28;20667;-76
2023/02/17 05:52:27;;;;;;;25.67;20.65;;;10.30;99.90;;;;;;5052991;28;20229;-76
2023/02/17 05:54:56;;;;;;;26.60;21.77;;;10.40;99.90;;;;;;5052213;28;20235;-76
2023/02/17 05:57:22;;;;;;;26.42;22.38;;;10.40;99.90;;;;;;5053241;28;20663;-76
2023/02/17 05:59:50;;;;;;;28.75;24.05;;;10.40;99.90;;;;;;5053971;28;20275;-77
2023/02/17 06:02:17;;;;;;;26.98;21.42;;;10.40;99.90;;;;;;5053753;28;20223;-80
2023/02/17 06:04:45;;;;;;;24.25;21.08;;;10.50;99.90;;;;;;5035746;28;20225;-76
2023/02/17 06:07:12;;;;;;;29.70;23.20;;;10.50;99.90;;;;;;5044693;28;20316;-76
2023/02/17 06:09:39;;;;;;;27.17;22.73;;;10.40;99.90;;;;;;5053133;28;20576;-76
2023/02/17 06:12:08;;;;;;;29.10;22.58;;;10.40;99.90;;;;;;5052437;28;20221;-76
2023/02/17 06:14:35;;;;;;;25.98;21.48;;;10.40;99.90;;;;;;5053098;28;20220;-76
2023/02/17 06:17:02;;;;;;;26.55;22.13;;;10.40;99.90;;;;;;5052845;28;20228;-80
2023/02/17 06:19:30;;;;;;;23.63;20.38;;;10.40;99.90;;;;;;5052485;28;20225;-76
2023/02/17 06:21:57;;;;;;;25.77;22.63;;;10.40;99.90;;;;;;5052144;28;20691;-80
2023/02/17 06:24:24;;;;;;;26.83;22.48;;;10.40;99.90;;;;;;5053961;28;20286;-80
2023/02/17 06:26:54;;;;;;;28.88;23.17;;;10.30;99.90;;;;;;5053385;28;20221;-76
2023/02/17 06:29:23;;;;;;;28.83;23.00;;;10.30;99.90;;;;;;5051590;28;20279;-76
2023/02/17 06:31:55;;;;;;;27.70;22.90;;;10.30;99.90;;;;;;5052453;28;20216;-76
2023/02/17 06:34:22;;;;;;;29.20;22.80;;;10.20;99.90;;;;;;5051847;28;20595;-76
2023/02/17 06:36:49;;;;;;;24.75;21.85;;;10.20;99.90;;;;;;5052097;28;20225;-76
2023/02/17 06:39:16;;;;;;;30.65;22.92;;;10.20;99.90;;;;;;5051940;28;20654;-76
2023/02/17 06:41:45;;;;;;;28.45;22.70;;;10.30;99.90;;;;;;5052436;28;20213;-81
2023/02/17 06:44:13;;;;;;;26.58;22.55;;;10.30;99.90;;;;;;5053403;28;20593;-76
2023/02/17 06:46:44;;;;;;;33.80;25.70;;;10.30;99.90;;;;;;5053936;28;20350;-76
2023/02/17 06:49:11;;;;;;;35.95;25.65;;;10.30;99.90;;;;;;5052585;28;20232;-80
2023/02/17 06:51:38;;;;;;;26.20;23.38;;;10.40;99.90;;;;;;5044214;28;20750;-81
2023/02/17 06:54:06;;;;;;;28.38;21.33;;;10.40;99.90;;;;;;5052395;28;20224;-80
2023/02/17 06:56:33;;;;;;;25.08;22.40;;;10.40;99.90;;;;;;5052249;28;20228;-81
2023/02/17 06:59:01;;;;;;;26.67;23.00;;;10.40;99.90;;;;;;5053043;28;20290;-75
2023/02/17 07:01:33;;;;;;;26.90;21.73;;;10.40;99.90;;;;;;5052737;28;20247;-77
2023/02/17 07:04:01;;;;;;;22.33;19.92;;;10.50;99.90;;;;;;5055544;28;20221;-76
2023/02/17 07:06:29;;;;;;;27.02;22.98;;;10.50;99.90;;;;;;5056439;28;20221;-80
2023/02/17 07:09:14;;;;;;;29.65;21.30;;;10.40;99.90;;;;;;5057358;28;20221;-76
2023/02/17 07:11:44;;;;;;;21.08;18.70;;;10.40;99.90;;;;;;5058365;28;20286;-79
2023/02/17 07:14:11;;;;;;;25.02;20.65;;;10.40;99.90;;;;;;5057106;28;20216;-80
2023/02/17 07:16:39;;;;;;;21.33;19.02;;;10.50;99.90;;;;;;5057043;28;20278;-77
2023/02/17 07:19:07;;;;;;;21.50;18.65;;;10.50;99.90;;;;;;5056031;28;20225;-80
2023/02/17 07:21:34;;;;;;;23.58;20.77;;;10.50;99.90;;;;;;5057102;28;20227;-81
2023/02/17 07:24:01;;;;;;;22.90;20.55;;;10.60;99.90;;;;;;5056986;28;20220;-82
2023/02/17 07:26:28;;;;;;;25.75;20.70;;;10.60;99.90;;;;;;5058130;28;20673;-76
2023/02/17 07:28:55;;;;;;;24.65;20.27;;;10.60;99.90;;;;;;5055366;28;20232;-76
2023/02/17 07:31:22;;;;;;;24.10;19.55;;;10.60;99.90;;;;;;5055417;28;20670;-75
2023/02/17 07:33:49;;;;;;;27.08;19.08;;;10.60;99.90;;;;;;5056189;28;20224;-78
2023/02/17 07:36:18;;;;;;;22.67;19.60;;;10.60;99.90;;;;;;5056602;28;20677;-76
2023/02/17 07:38:52;;;;;;;23.05;19.20;;;10.60;99.90;;;;;;5056638;28;20658;-77
2023/02/17 07:41:20;;;;;;;25.42;20.38;;;10.60;99.90;;;;;;5056832;28;21077;-77
2023/02/17 07:43:51;;;;;;;25.15;21.73;;;10.70;99.90;;;;;;5062470;28;20228;-80
2023/02/17 07:46:18;;;;;;;26.40;23.65;;;10.60;99.90;;;;;;5059093;28;20657;-76
2023/02/17 07:48:45;;;;;;;26.45;21.40;;;10.60;99.90;;;;;;5141649;22;20224;-80
2023/02/17 07:51:17;;;;;;;23.38;20.52;;;10.70;99.90;;;;;;5088488;28;20224;-81
2023/02/17 07:53:45;;;;;;;21.48;18.92;;;10.70;99.90;;;;;;5088629;28;20239;-81
2023/02/17 07:56:14;;;;;;;25.15;22.45;;;10.70;99.90;;;;;;5085370;28;20224;-81
2023/02/17 07:58:43;;;;;;;27.65;22.75;;;10.80;99.90;;;;;;5086593;28;20657;-79
2023/02/17 08:01:14;;;;;;;22.35;20.05;;;10.80;99.90;;;;;;5084172;28;20278;-79
2023/02/17 08:03:42;;;;;;;19.50;17.45;;;10.90;99.90;;;;;;5082957;28;20250;-80
2023/02/17 08:06:12;;;;;;;18.92;16.95;;;10.90;99.90;;;;;;5081399;28;20224;-79
2023/02/17 08:14:09;;;;;;;18.75;16.85;;;11.00;99.90;;;;;;5084374;28;20227;-80
2023/02/17 08:16:45;;;;;;;15.80;14.20;;;11.10;99.90;;;;;;5079671;28;20224;-77
2023/02/17 08:19:12;;;;;;;15.95;14.25;;;11.10;99.90;;;;;;5074700;28;20220;-77
2023/02/17 08:21:40;;;;;;;16.13;14.43;;;11.20;99.90;;;;;;5076004;28;20220;-76
2023/02/17 08:24:10;;;;;;;18.48;15.27;;;11.10;99.90;;;;;;5075120;28;20230;-78
2023/02/17 08:26:38;;;;;;;16.75;15.05;;;11.20;99.90;;;;;;5075612;28;20220;-76
2023/02/17 08:29:05;;;;;;;17.48;14.40;;;11.20;99.90;;;;;;5074585;28;20579;-77
2023/02/17 08:31:34;;;;;;;16.52;14.93;;;11.30;99.90;;;;;;5075439;28;20369;-77
2023/02/17 08:34:05;;;;;;;16.55;14.85;;;11.30;99.90;;;;;;5064409;28;20224;-81
2023/02/17 08:36:36;;;;;;;16.63;14.18;;;11.30;99.90;;;;;;5074779;28;20224;-81
2023/02/17 08:39:04;;;;;;;15.10;13.65;;;11.30;99.90;;;;;;5076085;28;20293;-80
2023/02/17 08:41:33;;;;;;;17.15;15.40;;;11.40;99.90;;;;;;5074479;28;20224;-76
2023/02/17 08:44:06;;;;;;;15.80;14.13;;;11.40;99.90;;;;;;5075457;28;20228;-80
2023/02/17 08:46:35;;;;;;;15.07;13.52;;;11.40;99.90;;;;;;5074743;28;20603;-77
2023/02/17 08:49:03;;;;;;;16.35;14.48;;;11.40;99.90;;;;;;5073526;28;20232;-80
2023/02/17 08:51:30;;;;;;;17.48;15.77;;;11.40;99.90;;;;;;5074520;28;20231;-80
2023/02/17 08:54:05;;;;;;;17.73;15.82;;;11.40;99.90;;;;;;5074430;28;20262;-76
2023/02/17 08:56:33;;;;;;;14.93;13.40;;;11.40;99.90;;;;;;5074672;28;20251;-80
2023/02/17 08:59:02;;;;;;;15.15;13.65;;;11.40;99.90;;;;;;5074593;28;20604;-76
2023/02/17 09:01:31;;;;;;;15.90;14.30;;;11.40;99.90;;;;;;5073942;28;20311;-76
2023/02/17 09:04:00;;;;;;;17.35;15.60;;;11.40;99.90;;;;;;5075757;28;20323;-76
2023/02/17 09:06:36;;;;;;;16.88;14.90;;;11.40;99.90;;;;;;5074680;28;20253;-77
2023/02/17 09:09:06;;;;;;;19.55;15.77;;;11.30;99.90;;;;;;5074445;28;20681;-76
2023/02/17 09:11:33;;;;;;;18.52;15.45;;;11.30;99.90;;;;;;5074036;28;20250;-77
2023/02/17 09:14:02;;;;;;;16.65;14.95;;;11.20;99.90;;;;;;5074320;28;20544;-76
2023/02/17 09:16:32;;;;;;;20.77;18.77;;;11.20;99.90;;;;;;5073937;28;20247;-77
2023/02/17 09:18:59;;;;;;;24.17;21.67;;;11.20;99.90;;;;;;5074045;28;20290;-77
2023/02/17 09:21:28;;;;;;;25.67;22.08;;;11.20;99.90;;;;;;5074101;28;20247;-80
2023/02/17 09:23:55;;;;;;;23.15;20.50;;;11.20;99.90;;;;;;5074464;28;20238;-77
2023/02/17 09:26:25;;;;;;;17.25;15.10;;;11.20;99.90;;;;;;5073700;28;20569;-80
2023/02/17 09:28:52;;;;;;;17.55;14.82;;;11.20;99.90;;;;;;5074409;28;20580;-77
2023/02/17 09:31:22;;;;;;;20.42;18.25;;;11.30;99.90;;;;;;5073995;28;20232;-77
2023/02/17 09:33:50;;;;;;;20.55;18.55;;;11.20;99.90;;;;;;5074522;28;20235;-80
2023/02/17 09:36:19;;;;;;;22.48;20.17;;;11.30;99.90;;;;;;5066858;28;20220;-77
2023/02/17 09:38:48;;;;;;;19.23;17.13;;;11.30;99.90;;;;;;5074417;28;20701;-77
2023/02/17 09:41:19;;;;;;;17.67;15.75;;;11.20;99.90;;;;;;5073957;28;20269;-76
2023/02/17 09:43:46;;;;;;;20.52;15.98;;;11.20;99.90;;;;;;5074830;28;20220;-76
2023/02/17 09:46:38;;;;;;;17.13;15.43;;;11.20;99.90;;;;;;5071692;28;20598;-80
2023/02/17 09:49:14;;;;;;;22.00;16.50;;;11.20;99.90;;;;;;5070250;28;20234;-77
2023/02/17 09:51:45;;;;;;;20.17;18.08;;;11.20;99.90;;;;;;5073362;28;20215;-76
2023/02/17 09:54:18;;;;;;;19.08;17.17;;;11.10;99.90;;;;;;5072879;28;20224;-76
2023/02/17 09:56:51;;;;;;;19.27;16.88;;;11.10;99.90;;;;;;5073876;28;20224;-76
2023/02/17 09:59:23;;;;;;;18.77;16.88;;;11.00;99.90;;;;;;5073183;28;20313;-77
2023/02/17 10:01:58;;;;;;;22.73;18.77;;;11.10;99.90;;;;;;5073917;28;20311;-76
2023/02/17 10:04:31;;;;;;;21.42;19.20;;;11.10;99.90;;;;;;5073492;28;20601;-81
2023/02/17 10:07:05;;;;;;;22.30;19.30;;;11.00;99.90;;;;;;5073519;28;20236;-80
2023/02/17 10:09:44;;;;;;;22.35;18.23;;;11.00;99.90;;;;;;5072410;28;20534;-80
2023/02/17 10:12:14;;;;;;;19.70;17.42;;;11.00;99.90;;;;;;5073100;28;20216;-76
2023/02/17 10:14:48;;;;;;;19.38;17.33;;;11.00;99.90;;;;;;5073522;28;20556;-77
2023/02/17 10:17:22;;;;;;;20.05;18.02;;;11.00;99.90;;;;;;5073323;28;20517;-80
2023/02/17 10:19:56;;;;;;;25.17;22.00;;;11.10;99.90;;;;;;5073763;28;20212;-76
2023/02/17 10:22:26;;;;;;;28.58;23.25;;;11.00;99.90;;;;;;5063921;28;20238;-79
2023/02/17 10:24:53;;;;;;;25.13;21.80;;;11.10;99.90;;;;;;5073522;28;20309;-76
2023/02/17 10:27:36;;;;;;;23.05;20.65;;;11.10;99.90;;;;;;5062912;28;20223;-76
2023/02/17 10:30:26;;;;;;;21.45;18.58;;;11.20;99.90;;;;;;5073013;28;20566;-81
2023/02/17 10:33:13;;;;;;;20.40;18.30;;;11.20;99.90;;;;;;5073769;28;20220;-76
2023/02/17 10:35:52;;;;;;;20.77;18.58;;;11.30;99.90;;;;;;5072930;28;20234;-79
2023/02/17 10:38:36;;;;;;;20.27;17.80;;;11.20;99.90;;;;;;5072568;28;20689;-77
2023/02/17 10:41:07;;;;;;;20.38;18.23;;;11.20;99.90;;;;;;5072989;28;20307;-76
2023/02/17 10:43:34;;;;;;;18.02;16.23;;;11.20;99.90;;;;;;5072623;28;20238;-76
2023/02/17 10:46:05;;;;;;;19.35;17.40;;;11.20;99.90;;;;;;5072009;28;20301;-76
2023/02/17 10:48:37;;;;;;;20.75;17.95;;;11.30;99.90;;;;;;5073261;28;20240;-76
2023/02/17 10:51:06;;;;;;;21.10;18.75;;;11.30;99.90;;;;;;5072616;28;20224;-79
2023/02/17 10:53:37;;;;;;;21.30;19.02;;;11.40;99.90;;;;;;5072656;28;20227;-76
2023/02/17 10:56:09;;;;;;;21.77;18.92;;;11.40;99.90;;;;;;5072763;28;20228;-76
2023/02/17 10:58:48;;;;;;;20.70;18.48;;;11.30;99.90;;;;;;5072755;28;20293;-76
2023/02/17 11:01:16;;;;;;;25.27;22.17;;;11.30;99.90;;;;;;5072500;28;20216;-76
2023/02/17 11:03:43;;;;;;;22.17;19.85;;;11.30;99.90;;;;;;5072823;28;20220;-80
2023/02/17 11:06:21;;;;;;;21.98;19.67;;;11.30;99.90;;;;;;5072480;28;20228;-79
2023/02/17 11:08:52;;;;;;;19.17;17.27;;;11.30;99.90;;;;;;5061473;28;20223;-80
2023/02/17 11:11:21;;;;;;;22.02;19.60;;;11.40;99.90;;;;;;5071234;28;20302;-76
2023/02/17 11:14:12;;;;;;;23.00;17.40;;;11.40;99.90;;;;;;5072413;28;20254;-76
2023/02/17 11:16:47;;;;;;;22.23;18.15;;;11.40;99.90;;;;;;5061107;28;20220;-75
2023/02/17 11:19:24;;;;;;;23.77;18.55;;;11.40;99.90;;;;;;5062005;28;20255;-76
2023/02/17 11:21:59;;;;;;;18.88;16.98;;;11.50;99.90;;;;;;5072242;28;20226;-76
2023/02/17 11:24:58;;;;;;;19.67;16.67;;;11.50;99.90;;;;;;5073019;28;20223;-80
2023/02/17 11:27:26;;;;;;;24.75;22.00;;;11.60;99.90;;;;;;5071655;28;20232;-77
2023/02/17 11:29:54;;;;;;;23.90;17.40;;;11.60;99.90;;;;;;5072107;28;20608;-76
2023/02/17 11:32:31;;;;;;;17.00;15.30;;;11.60;99.90;;;;;;5071659;28;20270;-80
2023/02/17 11:35:05;;;;;;;20.05;18.00;;;11.70;99.90;;;;;;5072698;28;20224;-80
2023/02/17 11:37:42;;;;;;;20.52;18.33;;;11.70;99.90;;;;;;5071650;28;20224;-77
2023/02/17 11:40:24;;;;;;;18.58;16.75;;;11.60;99.90;;;;;;5072345;28;20215;-76
2023/02/17 11:42:57;;;;;;;20.20;18.05;;;11.60;99.90;;;;;;5072650;28;20238;-76
2023/02/17 11:45:28;;;;;;;19.00;17.13;;;11.60;99.90;;;;;;5072276;28;20269;-77
2023/02/17 11:48:07;;;;;;;19.35;17.33;;;11.70;99.90;;;;;;5072437;28;20228;-79
2023/02/17 11:50:45;;;;;;;16.60;14.90;;;11.70;99.90;;;;;;5074597;28;20220;-76
2023/02/17 11:53:25;;;;;;;18.48;16.00;;;11.80;99.90;;;;;;5075023;28;20326;-79
2023/02/17 11:56:08;;;;;;;18.30;16.40;;;11.80;99.90;;;;;;5074632;28;20233;-79
2023/02/17 11:58:50;;;;;;;16.40;14.77;;;11.80;99.90;;;;;;5057768;28;20223;-80
2023/02/17 12:01:33;;;;;;;18.92;14.60;;;11.80;99.90;;;;;;5063870;28;20220;-81
2023/02/17 12:04:36;;;;;;;15.27;13.88;;;11.80;99.90;;;;;;5065790;28;20298;-81
2023/02/17 12:07:44;;;;;;;15.88;14.15;;;11.90;99.90;;;;;;5076854;28;20235;-81
2023/02/17 12:10:26;;;;;;;16.23;14.43;;;11.90;99.90;;;;;;5029710;28;20314;-81
2023/02/17 12:13:13;;;;;;;14.65;13.25;;;11.90;99.90;;;;;;5074930;28;20559;-80
2023/02/17 12:16:03;;;;;;;15.77;14.10;;;12.00;99.90;;;;;;5075655;28;20220;-80
2023/02/17 12:18:43;;;;;;;12.85;11.55;;;12.00;99.90;;;;;;5075313;28;20235;-78
2023/02/17 12:21:18;;;;;;;17.23;13.52;;;12.10;99.90;;;;;;5075718;28;20605;-80
2023/02/17 12:24:02;;;;;;;16.05;14.38;;;12.10;99.90;;;;;;5075033;28;20231;-79
2023/02/17 12:26:39;;;;;;;14.23;12.73;;;12.20;99.90;;;;;;5075173;28;20255;-76
2023/02/17 12:29:22;;;;;;;14.15;12.73;;;12.20;99.90;;;;;;5074303;28;20239;-75
2023/02/17 12:32:03;;;;;;;14.00;11.95;;;12.20;99.90;;;;;;5074889;28;20232;-81
2023/02/17 12:34:35;;;;;;;12.60;11.40;;;12.30;99.90;;;;;;5075249;28;20235;-81
2023/02/17 12:37:09;;;;;;;12.45;11.25;;;12.30;99.90;;;;;;5074510;28;25463;-76
2023/02/17 12:39:42;;;;;;;12.60;10.95;;;12.40;99.90;;;;;;5075289;28;20224;-80
2023/02/17 12:42:18;;;;;;;10.50;9.60;;;12.50;99.90;;;;;;5073288;28;20240;-76
2023/02/17 12:44:49;;;;;;;11.10;10.00;;;12.50;99.90;;;;;;5074805;28;20266;-77
2023/02/17 12:47:23;;;;;;;11.38;10.27;;;12.60;99.90;;;;;;5074652;28;20278;-79
2023/02/17 12:49:55;;;;;;;10.75;9.30;;;12.60;99.90;;;;;;5075197;28;20231;-80
2023/02/17 12:52:28;;;;;;;10.52;9.52;;;12.70;99.90;;;;;;5074860;28;20324;-78
2023/02/17 12:55:00;;;;;;;11.20;10.10;;;12.70;99.90;;;;;;5073732;28;20250;-80
2023/02/17 12:57:37;;;;;;;10.70;9.70;;;12.70;99.90;;;;;;5074386;28;20228;-76
2023/02/17 13:00:16;;;;;;;10.73;9.65;;;12.80;99.90;;;;;;5074637;28;20220;-76
2023/02/17 13:02:43;;;;;;;12.95;11.50;;;12.80;99.90;;;;;;5074158;28;20230;-75